Time;durP1;ratioP1;P1;durP2;ratioP2;P2;SDS_P1;SDS_P2;PMS_P1;PMS_P2;Temp;Humidity;BMP_temperature;BMP_pressure;BME280_temperature;BME280_humidity;BME280_pressure;Samples;Min_cycle;Max_cycle;Signal;HPM_P1;HPM_P2
2023/11/17 00:00:03;;;;;;;5.15;4.65;;;;;;;5.09;69.44;93521.69;515344;28;1012;-64
2023/11/17 00:00:19;;;;;;;5.20;4.63;;;;;;;5.10;69.45;93525.16;515471;28;916;-64
2023/11/17 00:00:35;;;;;;;5.45;4.70;;;;;;;5.09;69.26;93524.41;515204;28;842;-64
2023/11/17 00:00:54;;;;;;;6.28;4.88;;;;;;;5.11;69.47;93526.66;515606;28;845;-64
2023/11/17 00:01:09;;;;;;;6.68;4.95;;;;;;;5.11;69.50;93532.13;515682;28;891;-65
2023/11/17 00:01:25;;;;;;;6.57;5.05;;;;;;;5.12;69.28;93525.38;515497;28;777;-64
2023/11/17 00:01:40;;;;;;;5.60;5.00;;;;;;;5.11;69.27;93521.19;513314;28;1447;-64
2023/11/17 00:01:55;;;;;;;5.37;4.67;;;;;;;5.11;69.36;93526.66;513493;28;766;-64
2023/11/17 00:02:11;;;;;;;5.15;4.65;;;;;;;5.12;69.72;93522.66;513323;28;817;-64
2023/11/17 00:02:26;;;;;;;6.10;5.03;;;;;;;5.11;69.38;93524.63;513266;28;847;-64
2023/11/17 00:02:42;;;;;;;6.30;5.28;;;;;;;5.12;69.42;93528.88;513181;28;824;-64
2023/11/17 00:02:57;;;;;;;5.80;5.20;;;;;;;5.13;69.47;93524.16;513345;28;813;-64
2023/11/17 00:03:13;;;;;;;5.43;4.93;;;;;;;5.14;69.37;93526.38;513506;28;834;-64
2023/11/17 00:03:29;;;;;;;6.40;5.43;;;;;;;5.15;69.46;93519.66;513613;28;894;-64
2023/11/17 00:03:44;;;;;;;7.35;5.70;;;;;;;5.16;69.45;93523.84;513087;28;904;-64
2023/11/17 00:04:00;;;;;;;6.53;5.60;;;;;;;5.17;69.09;93528.09;513580;28;1070;-64
2023/11/17 00:04:16;;;;;;;7.00;5.43;;;;;;;5.19;69.13;93528.31;513377;28;789;-64
2023/11/17 00:04:32;;;;;;;6.35;5.20;;;;;;;5.20;69.28;93518.09;513255;28;927;-64
2023/11/17 00:04:47;;;;;;;6.03;5.20;;;;;;;5.21;69.42;93531.28;513374;28;832;-64
2023/11/17 00:05:03;;;;;;;5.57;4.93;;;;;;;5.22;69.08;93521.81;513416;28;848;-64
2023/11/17 00:05:21;;;;;;;6.47;4.70;;;;;;;5.23;69.20;93519.81;513571;28;766;-65
2023/11/17 00:05:37;;;;;;;5.85;4.82;;;;;;;5.21;69.04;93519.59;514369;28;1623;-64
2023/11/17 00:05:54;;;;;;;5.13;4.53;;;;;;;5.18;69.43;93520.59;515557;28;861;-64
2023/11/17 00:06:10;;;;;;;5.35;4.57;;;;;;;5.17;69.29;93516.41;515344;28;856;-64
2023/11/17 00:06:26;;;;;;;5.30;4.75;;;;;;;5.19;69.36;93513.88;515555;28;849;-64
2023/11/17 00:06:41;;;;;;;6.43;5.13;;;;;;;5.17;69.14;93513.66;515468;28;871;-64
2023/11/17 00:06:57;;;;;;;5.85;4.88;;;;;;;5.11;69.49;93510.97;515549;28;823;-64
2023/11/17 00:07:12;;;;;;;5.23;4.73;;;;;;;5.17;69.65;93513.66;515468;28;1109;-65
2023/11/17 00:07:28;;;;;;;6.00;5.17;;;;;;;5.16;69.69;93521.13;515752;28;880;-64
2023/11/17 00:07:43;;;;;;;6.22;5.00;;;;;;;5.15;69.33;93516.16;515072;28;1151;-64
2023/11/17 00:07:58;;;;;;;6.43;4.83;;;;;;;5.15;69.47;93516.91;515414;28;904;-63
2023/11/17 00:08:14;;;;;;;5.53;4.90;;;;;;;5.14;69.46;93515.41;515493;28;829;-65
2023/11/17 00:08:30;;;;;;;5.20;4.70;;;;;;;5.14;69.55;93517.41;515697;28;1943;-64
2023/11/17 00:08:46;;;;;;;5.35;4.85;;;;;;;5.09;69.67;93504.53;515343;28;785;-64
2023/11/17 00:09:05;;;;;;;5.47;4.93;;;;;;;5.14;69.41;93511.94;515593;28;817;-65
2023/11/17 00:09:20;;;;;;;6.60;5.03;;;;;;;5.14;69.76;93511.94;515369;28;900;-64
2023/11/17 00:09:36;;;;;;;8.48;6.10;;;;;;;5.13;69.41;93513.91;515499;28;777;-64
2023/11/17 00:09:51;;;;;;;9.47;6.90;;;;;;;5.14;69.52;93511.94;515697;28;742;-64
2023/11/17 00:10:07;;;;;;;8.10;6.10;;;;;;;5.14;69.48;93509.19;515387;28;785;-64
2023/11/17 00:10:22;;;;;;;7.68;5.93;;;;;;;5.15;69.51;93507.97;515521;28;884;-64
2023/11/17 00:10:38;;;;;;;8.30;6.35;;;;;;;5.00;69.56;93485.72;515469;28;782;-64
2023/11/17 00:10:53;;;;;;;7.33;6.33;;;;;;;5.17;69.49;93510.91;515506;28;844;-64
2023/11/17 00:11:10;;;;;;;7.83;6.07;;;;;;;5.16;69.41;93509.44;515454;28;852;-64
2023/11/17 00:11:29;;;;;;;8.70;6.18;;;;;;;5.17;69.24;93506.19;515318;28;837;-65
2023/11/17 00:11:44;;;;;;;8.93;6.47;;;;;;;5.18;69.58;93504.19;515294;28;906;-64
2023/11/17 00:12:00;;;;;;;7.43;6.03;;;;;;;5.18;69.89;93509.66;515553;28;829;-64
2023/11/17 00:12:15;;;;;;;7.50;5.83;;;;;;;5.17;69.51;93506.19;515289;28;757;-64
2023/11/17 00:12:32;;;;;;;7.67;6.17;;;;;;;5.18;69.64;93501.44;515466;28;942;-64
2023/11/17 00:12:47;;;;;;;7.72;6.63;;;;;;;5.20;69.60;93509.88;515534;28;855;-64
2023/11/17 00:13:03;;;;;;;7.65;6.28;;;;;;;5.20;69.59;93501.66;515448;28;853;-64
2023/11/17 00:13:19;;;;;;;8.97;6.20;;;;;;;5.21;69.84;93501.19;515463;28;797;-64
2023/11/17 00:13:35;;;;;;;8.68;6.28;;;;;;;5.21;69.94;93497.69;515249;28;962;-64
2023/11/17 00:13:50;;;;;;;8.95;6.28;;;;;;;5.22;69.50;93499.16;515422;28;936;-64
2023/11/17 00:14:06;;;;;;;9.27;6.55;;;;;;;5.19;69.84;93487.25;515534;28;811;-64
2023/11/17 00:14:21;;;;;;;7.77;6.63;;;;;;;5.14;69.92;93501.72;515421;28;872;-64
2023/11/17 00:14:37;;;;;;;8.18;6.60;;;;;;;5.14;70.33;93493.53;515456;28;861;-64
2023/11/17 00:14:53;;;;;;;9.40;6.82;;;;;;;5.13;70.39;93494.03;515528;28;805;-65
2023/11/17 00:15:11;;;;;;;10.90;7.63;;;;;;;5.10;70.29;93495.06;515588;28;778;-64
2023/11/17 00:15:28;;;;;;;10.27;7.15;;;;;;;5.07;70.16;93496.81;515731;28;869;-64
2023/11/17 00:15:43;;;;;;;9.93;7.20;;;;;;;5.08;70.03;93495.56;515338;28;892;-64
2023/11/17 00:15:58;;;;;;;8.60;6.90;;;;;;;5.09;70.28;93490.84;515546;28;774;-64
2023/11/17 00:16:14;;;;;;;7.00;6.30;;;;;;;5.09;70.48;93496.31;515542;28;845;-64
2023/11/17 00:16:29;;;;;;;7.00;6.30;;;;;;;5.11;70.54;93494.53;515609;28;805;-64
2023/11/17 00:16:45;;;;;;;7.43;6.43;;;;;;;5.13;70.22;93488.56;515484;28;793;-64
2023/11/17 00:17:00;;;;;;;7.27;6.00;;;;;;;5.15;70.79;93497.00;515608;28;869;-64
2023/11/17 00:17:16;;;;;;;7.15;5.63;;;;;;;5.17;70.55;93489.78;515523;28;841;-64
2023/11/17 00:17:33;;;;;;;8.73;5.80;;;;;;;5.19;70.68;93487.25;515407;28;1027;-64
2023/11/17 00:17:51;;;;;;;9.23;6.38;;;;;;;5.20;70.40;93491.47;515390;28;1374;-64
2023/11/17 00:18:07;;;;;;;8.05;6.07;;;;;;;5.21;70.53;93492.97;515377;28;969;-64
2023/11/17 00:18:22;;;;;;;8.20;5.43;;;;;;;5.22;70.43;93488.97;515458;28;1194;-64
2023/11/17 00:18:38;;;;;;;7.03;5.30;;;;;;;5.24;70.50;93493.94;515586;28;919;-64
2023/11/17 00:18:53;;;;;;;5.82;5.22;;;;;;;5.25;70.59;93492.66;515489;28;919;-64
2023/11/17 00:19:09;;;;;;;6.13;5.53;;;;;;;5.26;70.37;93492.16;515454;28;789;-64
2023/11/17 00:19:24;;;;;;;6.50;5.53;;;;;;;5.28;70.57;93483.44;515349;28;865;-65
2023/11/17 00:19:40;;;;;;;7.40;5.57;;;;;;;5.30;70.64;93491.88;515607;28;833;-65
2023/11/17 00:19:56;;;;;;;9.07;5.83;;;;;;;5.30;70.49;93484.41;515547;28;801;-64
2023/11/17 00:20:11;;;;;;;8.35;5.30;;;;;;;5.32;70.38;93490.13;515391;28;836;-64
2023/11/17 00:20:27;;;;;;;5.57;4.88;;;;;;;5.34;70.50;93489.59;515618;28;819;-65
2023/11/17 00:20:42;;;;;;;5.67;5.10;;;;;;;5.33;70.64;93490.84;515672;28;774;-64
2023/11/17 00:20:57;;;;;;;6.10;5.50;;;;;;;5.36;70.59;93493.31;515563;28;781;-64
2023/11/17 00:21:13;;;;;;;5.93;5.22;;;;;;;5.37;70.54;93497.50;515454;28;857;-64
2023/11/17 00:21:29;;;;;;;6.30;4.93;;;;;;;5.40;71.05;93503.97;515660;28;785;-64
2023/11/17 00:21:44;;;;;;;5.97;4.93;;;;;;;5.40;70.40;93498.47;515341;28;805;-64
2023/11/17 00:22:00;;;;;;;6.05;5.53;;;;;;;5.40;70.67;93495.75;515656;28;848;-64
2023/11/17 00:22:15;;;;;;;7.53;5.70;;;;;;;5.41;70.35;93496.50;515419;28;819;-64
2023/11/17 00:22:30;;;;;;;8.07;5.33;;;;;;;5.43;70.39;93499.47;515716;28;876;-64
2023/11/17 00:22:49;;;;;;;7.13;5.88;;;;;;;5.44;70.29;93498.19;515505;28;833;-65
2023/11/17 00:23:04;;;;;;;6.13;5.53;;;;;;;5.44;70.42;93490.72;515434;28;915;-64
2023/11/17 00:23:19;;;;;;;6.20;5.27;;;;;;;5.46;70.41;93495.69;515360;28;927;-65
2023/11/17 00:23:35;;;;;;;6.95;5.30;;;;;;;5.44;70.32;93493.47;515628;28;845;-65
2023/11/17 00:23:50;;;;;;;6.40;5.10;;;;;;;5.43;70.09;93489.25;515572;28;864;-64
2023/11/17 00:24:06;;;;;;;5.83;4.90;;;;;;;5.43;69.69;93492.00;515389;28;762;-64
2023/11/17 00:24:21;;;;;;;5.78;4.95;;;;;;;5.43;69.89;93489.25;515468;28;898;-64
2023/11/17 00:24:37;;;;;;;5.65;4.95;;;;;;;5.41;70.01;93483.56;515611;28;836;-65
2023/11/17 00:24:54;;;;;;;5.67;5.07;;;;;;;5.41;70.03;93489.03;515523;28;754;-64
2023/11/17 00:25:09;;;;;;;5.85;5.10;;;;;;;5.38;70.03;93485.31;515472;28;963;-64
2023/11/17 00:25:24;;;;;;;7.07;5.43;;;;;;;5.39;69.61;93488.81;515511;28;853;-64
2023/11/17 00:25:40;;;;;;;6.78;5.53;;;;;;;5.41;69.84;93488.28;515568;28;809;-65
2023/11/17 00:25:56;;;;;;;5.80;5.03;;;;;;;5.41;70.02;93486.28;515373;28;769;-64
2023/11/17 00:26:11;;;;;;;6.75;5.25;;;;;;;5.43;70.04;93488.50;515403;28;859;-64
2023/11/17 00:26:27;;;;;;;6.88;5.30;;;;;;;5.43;69.63;93485.78;515458;28;817;-64
2023/11/17 00:26:44;;;;;;;5.78;5.07;;;;;;;5.45;69.87;93489.47;515625;28;785;-64
2023/11/17 00:27:00;;;;;;;7.32;5.47;;;;;;;5.45;69.75;93484.00;515690;28;1057;-64
2023/11/17 00:27:16;;;;;;;7.65;5.78;;;;;;;5.48;69.61;93482.25;515325;28;865;-64
2023/11/17 00:27:37;;;;;;;6.85;5.80;;;;;;;5.47;69.71;93483.47;515431;28;848;-64
2023/11/17 00:27:52;;;;;;;11.07;7.22;;;;;;;5.46;69.49;93480.00;515493;28;958;-64
2023/11/17 00:28:10;;;;;;;13.15;8.73;;;;;;;5.47;69.54;93483.47;515563;28;877;-65
2023/11/17 00:28:25;;;;;;;15.60;10.98;;;;;;;5.47;69.42;93478.00;515686;28;1979;-65
2023/11/17 00:28:42;;;;;;;15.23;11.30;;;;;;;5.46;69.25;93485.47;515501;28;753;-64
2023/11/17 00:28:57;;;;;;;15.90;10.40;;;;;;;5.47;69.39;93486.22;515585;28;848;-64
2023/11/17 00:29:13;;;;;;;17.33;10.50;;;;;;;5.47;69.10;93476.00;515434;28;820;-64
2023/11/17 00:29:28;;;;;;;18.90;11.27;;;;;;;5.47;69.09;93486.97;515710;28;907;-64
2023/11/17 00:29:43;;;;;;;16.50;10.60;;;;;;;5.46;68.77;93482.00;515269;28;868;-64
2023/11/17 00:29:59;;;;;;;13.88;9.77;;;;;;;5.45;69.04;93481.25;515505;28;844;-64
2023/11/17 00:30:14;;;;;;;13.17;9.97;;;;;;;5.46;68.81;93480.00;515450;28;872;-64
2023/11/17 00:30:30;;;;;;;15.15;10.43;;;;;;;5.46;69.18;93473.78;515540;28;836;-64
2023/11/17 00:30:45;;;;;;;15.37;10.40;;;;;;;5.46;69.07;93474.53;515421;28;863;-64
2023/11/17 00:31:01;;;;;;;12.80;9.65;;;;;;;5.47;69.18;93476.00;515600;28;951;-64
2023/11/17 00:31:16;;;;;;;13.47;9.07;;;;;;;5.48;69.24;93477.47;515752;28;772;-64
2023/11/17 00:31:31;;;;;;;14.37;9.47;;;;;;;5.49;69.13;93470.00;515413;28;769;-64
2023/11/17 00:31:47;;;;;;;13.23;9.75;;;;;;;5.49;68.95;93473.50;515254;28;864;-64
2023/11/17 00:32:04;;;;;;;13.23;9.37;;;;;;;5.48;69.16;93469.25;515491;28;1007;-64
2023/11/17 00:32:19;;;;;;;12.98;9.02;;;;;;;5.49;68.94;93473.50;515705;28;855;-64
2023/11/17 00:32:35;;;;;;;11.47;8.73;;;;;;;5.32;68.79;93442.84;515355;28;892;-64
2023/11/17 00:32:51;;;;;;;12.00;9.20;;;;;;;5.50;68.92;93474.97;515441;28;856;-64
2023/11/17 00:33:06;;;;;;;14.40;9.27;;;;;;;5.51;69.05;93464.75;515452;28;777;-64
2023/11/17 00:33:22;;;;;;;15.17;9.07;;;;;;;5.50;69.13;93466.75;515708;28;788;-64
2023/11/17 00:33:38;;;;;;;13.52;9.38;;;;;;;5.52;69.20;93467.00;515397;28;841;-64
2023/11/17 00:33:53;;;;;;;11.93;9.23;;;;;;;5.51;68.69;93465.50;515367;28;1092;-64
2023/11/17 00:34:08;;;;;;;13.67;9.03;;;;;;;5.51;68.73;93470.25;515167;28;1612;-64
2023/11/17 00:34:24;;;;;;;14.38;8.75;;;;;;;5.51;68.91;93472.97;515536;28;753;-64
2023/11/17 00:34:39;;;;;;;13.17;8.00;;;;;;;5.50;68.89;93472.22;515373;28;966;-64
2023/11/17 00:34:55;;;;;;;14.25;8.38;;;;;;;5.51;68.73;93468.25;515472;28;792;-64
2023/11/17 00:35:11;;;;;;;13.60;8.87;;;;;;;5.52;68.88;93469.75;515423;28;861;-64
2023/11/17 00:35:27;;;;;;;13.02;8.80;;;;;;;5.51;68.98;93467.50;515719;28;902;-64
2023/11/17 00:35:45;;;;;;;12.90;8.90;;;;;;;5.50;69.05;93471.50;515279;28;923;-65
2023/11/17 00:36:01;;;;;;;13.18;8.93;;;;;;;5.50;68.76;93461.28;515409;28;859;-64
2023/11/17 00:36:16;;;;;;;13.00;8.80;;;;;;;5.50;68.94;93474.25;515419;28;867;-64
2023/11/17 00:36:32;;;;;;;12.40;9.32;;;;;;;5.50;69.22;93472.22;515638;28;786;-64
2023/11/17 00:36:47;;;;;;;13.83;10.43;;;;;;;5.50;69.30;93469.50;515508;28;848;-64
2023/11/17 00:37:09;;;;;;;12.97;9.57;;;;;;;5.51;69.09;93468.25;515514;28;844;-64
2023/11/17 00:37:26;;;;;;;14.27;8.90;;;;;;;5.51;69.12;93473.72;515426;28;852;-64
2023/11/17 00:37:43;;;;;;;13.95;8.48;;;;;;;5.52;68.88;93474.47;515389;28;1578;-64
2023/11/17 00:37:59;;;;;;;12.93;7.85;;;;;;;5.52;68.86;93461.53;515337;28;809;-64
2023/11/17 00:38:14;;;;;;;12.18;8.20;;;;;;;5.52;68.81;93464.25;515200;28;2549;-64
2023/11/17 00:38:31;;;;;;;12.47;9.10;;;;;;;5.54;68.83;93466.47;515360;28;841;-64
2023/11/17 00:38:46;;;;;;;11.75;9.20;;;;;;;5.54;69.11;93461.00;515566;28;805;-64
2023/11/17 00:39:02;;;;;;;11.68;8.68;;;;;;;5.49;68.88;93450.84;515537;28;833;-64
2023/11/17 00:39:18;;;;;;;10.77;8.67;;;;;;;5.54;69.15;93461.00;515664;28;968;-64
2023/11/17 00:39:37;;;;;;;11.43;8.88;;;;;;;5.34;69.17;93432.84;513264;28;1487;-64
2023/11/17 00:39:55;;;;;;;10.95;8.15;;;;;;;5.55;69.32;93465.22;513249;28;879;-64
2023/11/17 00:40:10;;;;;;;11.80;8.20;;;;;;;5.55;69.48;93462.47;513099;28;900;-64
2023/11/17 00:40:26;;;;;;;12.38;8.52;;;;;;;5.55;69.42;93448.78;513289;28;861;-64
2023/11/17 00:40:41;;;;;;;10.73;7.87;;;;;;;5.55;69.05;93454.25;513494;28;848;-64
2023/11/17 00:41:00;;;;;;;11.40;7.57;;;;;;;5.55;69.34;93452.25;513388;28;749;-64
2023/11/17 00:41:16;;;;;;;12.50;8.50;;;;;;;5.51;69.25;93451.06;513210;28;880;-64
2023/11/17 00:41:32;;;;;;;10.65;7.47;;;;;;;5.48;69.47;93446.63;514965;28;855;-64
2023/11/17 00:41:47;;;;;;;9.88;7.05;;;;;;;5.44;69.23;93452.38;515484;28;824;-64
2023/11/17 00:42:03;;;;;;;11.07;7.27;;;;;;;5.38;69.44;93452.47;515430;28;829;-64
2023/11/17 00:42:18;;;;;;;10.38;7.03;;;;;;;5.35;69.51;93456.22;515306;28;938;-64
2023/11/17 00:42:33;;;;;;;11.57;7.33;;;;;;;5.34;69.81;93454.75;515390;28;884;-64
2023/11/17 00:42:49;;;;;;;13.55;7.95;;;;;;;5.27;69.74;93440.88;515698;28;860;-64
2023/11/17 00:43:04;;;;;;;11.77;7.77;;;;;;;5.34;69.50;93448.53;515484;28;777;-64
2023/11/17 00:43:20;;;;;;;10.57;7.23;;;;;;;5.33;69.66;93449.78;515440;28;841;-65
2023/11/17 00:43:36;;;;;;;10.75;7.28;;;;;;;5.34;69.94;93443.06;515313;28;875;-64
2023/11/17 00:43:51;;;;;;;9.70;7.75;;;;;;;5.31;69.84;93439.34;515660;28;808;-64
2023/11/17 00:44:07;;;;;;;11.20;7.67;;;;;;;5.33;69.75;93456.00;515330;28;928;-64
2023/11/17 00:44:22;;;;;;;11.25;7.15;;;;;;;5.31;69.58;93447.56;515420;28;829;-64
2023/11/17 00:44:39;;;;;;;9.63;6.80;;;;;;;5.31;69.52;93449.56;515369;28;789;-64
2023/11/17 00:44:54;;;;;;;9.48;6.88;;;;;;;5.30;69.80;93453.56;515701;28;935;-64
2023/11/17 00:45:10;;;;;;;8.95;6.80;;;;;;;5.29;69.86;93450.06;515493;28;766;-64
2023/11/17 00:45:25;;;;;;;7.80;6.43;;;;;;;5.30;69.79;93453.56;515439;28;745;-64
2023/11/17 00:45:41;;;;;;;7.53;6.57;;;;;;;5.27;69.82;93449.84;515350;28;892;-64
2023/11/17 00:45:58;;;;;;;7.87;6.77;;;;;;;5.27;69.79;93455.31;515705;28;800;-64
2023/11/17 00:46:13;;;;;;;7.53;6.35;;;;;;;5.28;69.58;93453.34;515238;28;1793;-64
2023/11/17 00:46:30;;;;;;;6.85;5.75;;;;;;;5.26;69.92;93451.09;515334;28;860;-63
2023/11/17 00:46:45;;;;;;;6.90;5.75;;;;;;;5.27;69.69;93454.56;515463;28;817;-64
2023/11/17 00:47:04;;;;;;;8.13;6.03;;;;;;;5.26;69.74;93458.59;515785;28;956;-64
2023/11/17 00:47:19;;;;;;;7.93;6.10;;;;;;;5.27;70.14;93454.56;515701;28;809;-64
2023/11/17 00:47:35;;;;;;;7.77;6.27;;;;;;;5.28;69.83;93456.06;515537;28;797;-63
2023/11/17 00:47:51;;;;;;;7.78;6.47;;;;;;;5.26;69.79;93453.09;515454;28;809;-64
2023/11/17 00:48:06;;;;;;;6.68;5.88;;;;;;;5.28;70.03;93461.53;515232;28;877;-64
2023/11/17 00:48:22;;;;;;;6.15;5.55;;;;;;;5.28;70.02;93456.06;515528;28;904;-64
2023/11/17 00:48:38;;;;;;;7.37;5.80;;;;;;;5.27;70.07;93457.31;513305;28;1976;-64
2023/11/17 00:48:53;;;;;;;8.18;5.85;;;;;;;5.28;69.65;93450.59;513567;28;761;-64
2023/11/17 00:49:09;;;;;;;7.23;5.93;;;;;;;5.27;70.14;93455.31;513588;28;845;-64
2023/11/17 00:49:25;;;;;;;6.60;6.00;;;;;;;5.27;69.85;93454.56;513600;28;789;-64
2023/11/17 00:49:42;;;;;;;6.68;6.03;;;;;;;5.04;70.01;93423.22;513317;28;1642;-64
2023/11/17 00:49:58;;;;;;;8.40;6.47;;;;;;;5.25;69.79;93457.84;513471;28;851;-64
2023/11/17 00:50:15;;;;;;;7.57;5.93;;;;;;;5.23;69.89;93454.88;513367;28;757;-64
2023/11/17 00:50:32;;;;;;;6.15;5.53;;;;;;;5.18;70.05;93443.97;513632;28;919;-64
2023/11/17 00:50:47;;;;;;;6.05;5.53;;;;;;;5.22;69.96;93455.38;513505;28;919;-64
2023/11/17 00:51:03;;;;;;;5.63;5.05;;;;;;;5.20;69.97;93455.88;513530;28;844;-64
2023/11/17 00:51:19;;;;;;;6.20;5.43;;;;;;;5.02;69.73;93431.22;513488;28;882;-63
2023/11/17 00:51:34;;;;;;;6.20;5.60;;;;;;;5.18;69.78;93454.91;513610;28;939;-64
2023/11/17 00:51:49;;;;;;;6.13;5.50;;;;;;;5.17;69.94;93451.47;513378;28;911;-64
2023/11/17 00:52:05;;;;;;;6.82;5.63;;;;;;;5.17;69.75;93456.19;513426;28;785;-65
2023/11/17 00:52:20;;;;;;;6.27;5.50;;;;;;;5.17;70.11;93450.72;513310;28;750;-64
2023/11/17 00:52:37;;;;;;;6.13;5.53;;;;;;;4.88;69.91;93411.19;513509;28;900;-64
2023/11/17 00:52:53;;;;;;;6.95;5.93;;;;;;;5.17;69.80;93453.44;513504;28;801;-64
2023/11/17 00:53:11;;;;;;;6.57;5.78;;;;;;;5.17;69.91;93459.66;513495;28;862;-64
2023/11/17 00:53:28;;;;;;;6.45;5.53;;;;;;;5.12;69.80;93462.44;514906;28;1229;-64
2023/11/17 00:53:44;;;;;;;7.32;5.75;;;;;;;5.12;70.05;93456.97;517362;28;844;-64
2023/11/17 00:54:04;;;;;;;6.30;5.47;;;;;;;5.11;70.25;93448.00;517720;28;900;-64
2023/11/17 00:54:25;;;;;;;5.88;5.28;;;;;;;5.09;69.93;93453.25;517641;28;795;-64
2023/11/17 00:54:47;;;;;;;6.15;5.32;;;;;;;5.10;70.29;93451.28;517541;28;836;-64
2023/11/17 00:55:06;;;;;;;7.22;5.50;;;;;;;5.06;70.21;93450.81;517621;28;856;-64
2023/11/17 00:55:22;;;;;;;7.18;5.53;;;;;;;5.04;70.09;93450.59;517699;28;848;-64
2023/11/17 00:55:37;;;;;;;6.23;5.63;;;;;;;5.04;70.49;93450.59;517354;28;875;-64
2023/11/17 00:55:53;;;;;;;6.00;5.30;;;;;;;5.03;70.36;93455.31;517430;28;895;-64
2023/11/17 00:56:10;;;;;;;7.10;5.35;;;;;;;5.03;70.26;93457.31;517511;28;771;-64
2023/11/17 00:56:28;;;;;;;7.07;5.68;;;;;;;5.01;70.28;93455.09;517637;28;964;-64
2023/11/17 00:56:44;;;;;;;6.57;5.78;;;;;;;5.02;70.44;93458.56;517311;28;892;-64
2023/11/17 00:56:59;;;;;;;7.22;6.32;;;;;;;5.01;70.50;93466.03;515862;28;1110;-64
2023/11/17 00:57:16;;;;;;;8.70;6.90;;;;;;;5.03;70.54;93460.03;515340;28;862;-64
2023/11/17 00:57:32;;;;;;;8.23;6.55;;;;;;;5.03;70.47;93465.50;515696;28;856;-64
2023/11/17 00:57:47;;;;;;;7.97;6.22;;;;;;;5.03;70.86;93462.78;515375;28;760;-64
2023/11/17 00:58:03;;;;;;;9.17;6.60;;;;;;;5.04;70.40;93456.06;515317;28;1119;-64
2023/11/17 00:58:19;;;;;;;9.50;7.07;;;;;;;5.04;70.72;93454.06;515294;28;887;-64
2023/11/17 00:58:34;;;;;;;8.73;6.75;;;;;;;5.05;70.87;93457.53;515569;28;882;-64
2023/11/17 00:58:50;;;;;;;8.15;6.20;;;;;;;5.04;70.75;93459.56;515393;28;804;-64
2023/11/17 00:59:11;;;;;;;8.37;6.43;;;;;;;5.04;70.56;93456.06;515473;28;859;-64
2023/11/17 00:59:26;;;;;;;9.05;6.03;;;;;;;5.05;70.61;93450.06;515424;28;884;-64
2023/11/17 00:59:42;;;;;;;8.07;5.88;;;;;;;5.05;70.96;93457.53;515291;28;797;-64
2023/11/17 00:59:57;;;;;;;7.67;5.93;;;;;;;5.06;70.65;93454.31;515643;28;841;-63
2023/11/17 01:00:13;;;;;;;9.13;6.47;;;;;;;5.06;70.90;93457.03;515179;28;837;-64
2023/11/17 01:00:29;;;;;;;9.20;6.75;;;;;;;5.07;70.75;93450.31;515362;28;836;-64
2023/11/17 01:00:44;;;;;;;7.57;6.10;;;;;;;5.07;70.71;93450.31;515348;28;832;-64
2023/11/17 01:01:00;;;;;;;7.17;6.10;;;;;;;5.08;70.84;93451.06;515634;28;749;-64
2023/11/17 01:01:16;;;;;;;7.15;6.03;;;;;;;5.07;70.73;93450.31;515288;28;884;-64
2023/11/17 01:01:31;;;;;;;7.63;5.97;;;;;;;5.07;70.57;93449.56;515429;28;956;-64
2023/11/17 01:01:47;;;;;;;7.17;6.07;;;;;;;5.07;70.81;93446.81;515337;28;773;-64
2023/11/17 01:02:04;;;;;;;6.63;5.78;;;;;;;5.06;70.43;93453.56;515512;28;847;-64
2023/11/17 01:02:19;;;;;;;7.45;5.95;;;;;;;5.07;70.82;93446.81;515410;28;805;-64
2023/11/17 01:02:35;;;;;;;9.38;6.07;;;;;;;5.06;70.60;93446.09;515311;28;820;-64
2023/11/17 01:02:52;;;;;;;10.13;6.23;;;;;;;5.07;70.58;93444.81;515504;28;923;-64
2023/11/17 01:03:07;;;;;;;9.45;6.45;;;;;;;5.03;70.80;93440.88;515523;28;928;-65
2023/11/17 01:03:23;;;;;;;8.60;6.20;;;;;;;5.09;70.76;93449.81;515468;28;777;-64
2023/11/17 01:03:39;;;;;;;8.47;5.70;;;;;;;5.09;70.79;93447.06;515296;28;801;-64
2023/11/17 01:03:54;;;;;;;7.47;5.90;;;;;;;5.10;70.92;93454.00;515480;28;994;-64
2023/11/17 01:04:09;;;;;;;8.47;6.50;;;;;;;5.09;70.58;93449.81;515460;28;1012;-64
2023/11/17 01:04:25;;;;;;;8.80;6.60;;;;;;;5.10;70.79;93454.75;515455;28;829;-64
2023/11/17 01:04:41;;;;;;;8.20;6.40;;;;;;;5.10;70.72;93452.03;515285;28;905;-64
2023/11/17 01:04:56;;;;;;;7.22;6.03;;;;;;;5.07;70.65;93452.28;515393;28;933;-64
2023/11/17 01:05:11;;;;;;;7.87;6.60;;;;;;;5.04;70.72;93451.34;515500;28;823;-64
2023/11/17 01:05:27;;;;;;;10.10;6.90;;;;;;;5.04;70.98;93450.59;515475;28;828;-64
2023/11/17 01:05:42;;;;;;;10.07;6.67;;;;;;;5.02;70.96;93455.84;515290;28;860;-64
2023/11/17 01:05:57;;;;;;;8.33;6.50;;;;;;;5.02;70.81;93455.84;515474;28;895;-64
2023/11/17 01:06:13;;;;;;;7.50;6.47;;;;;;;5.03;71.04;93454.56;515407;28;778;-64
2023/11/17 01:06:28;;;;;;;8.83;6.83;;;;;;;5.01;71.12;93460.56;515382;28;821;-64
2023/11/17 01:06:43;;;;;;;9.30;6.93;;;;;;;5.03;71.09;93460.03;515319;28;777;-64
2023/11/17 01:06:59;;;;;;;10.02;7.43;;;;;;;5.03;70.74;93458.06;515622;28;782;-64
2023/11/17 01:07:14;;;;;;;9.60;7.47;;;;;;;5.04;71.10;93453.34;515296;28;982;-64
2023/11/17 01:07:30;;;;;;;9.82;7.05;;;;;;;5.05;71.07;93454.81;515416;28;856;-64
2023/11/17 01:07:46;;;;;;;10.63;7.30;;;;;;;5.05;71.15;93463.75;514982;28;1183;-64
2023/11/17 01:08:01;;;;;;;9.83;7.83;;;;;;;5.05;70.81;93454.81;515567;28;1059;-64
2023/11/17 01:08:17;;;;;;;8.20;7.30;;;;;;;4.76;71.03;93417.31;515306;28;829;-64
2023/11/17 01:08:32;;;;;;;9.03;7.03;;;;;;;5.04;70.94;93456.06;515251;28;1934;-64
2023/11/17 01:08:48;;;;;;;9.00;6.83;;;;;;;5.04;71.17;93453.34;515343;28;820;-64
2023/11/17 01:09:04;;;;;;;9.10;6.70;;;;;;;5.05;71.34;93454.81;515628;28;947;-64
2023/11/17 01:09:20;;;;;;;10.73;7.57;;;;;;;5.05;71.06;93452.81;515308;28;817;-64
2023/11/17 01:09:35;;;;;;;9.05;7.00;;;;;;;5.05;71.31;93446.59;515304;28;863;-64
2023/11/17 01:09:51;;;;;;;8.48;6.60;;;;;;;5.05;71.19;93441.88;515366;28;773;-64
2023/11/17 01:10:07;;;;;;;9.10;6.87;;;;;;;5.07;71.42;93447.56;515546;28;820;-65
2023/11/17 01:10:23;;;;;;;9.32;6.15;;;;;;;4.88;71.30;93410.47;515490;28;1430;-64
2023/11/17 01:10:39;;;;;;;8.50;5.65;;;;;;;5.11;71.48;93447.28;515391;28;920;-64
2023/11/17 01:10:54;;;;;;;7.30;5.50;;;;;;;5.12;71.68;93440.56;515384;28;872;-65
2023/11/17 01:11:12;;;;;;;6.90;5.60;;;;;;;5.12;71.68;93440.56;515660;28;828;-64
2023/11/17 01:11:27;;;;;;;7.15;5.70;;;;;;;5.11;71.33;93439.09;515642;28;828;-64
2023/11/17 01:11:42;;;;;;;7.80;5.73;;;;;;;5.10;71.70;93437.59;515260;28;778;-64
2023/11/17 01:11:58;;;;;;;7.60;5.75;;;;;;;5.12;71.72;93438.56;515372;28;1046;-64
2023/11/17 01:12:14;;;;;;;8.80;5.70;;;;;;;5.15;71.67;93439.53;515458;28;868;-64
2023/11/17 01:12:30;;;;;;;9.00;5.95;;;;;;;5.15;71.56;93436.81;515606;28;1026;-64
2023/11/17 01:12:45;;;;;;;7.68;5.55;;;;;;;5.17;71.58;93443.25;515303;28;1516;-64
2023/11/17 01:13:01;;;;;;;7.93;5.77;;;;;;;5.16;71.54;93446.47;515531;28;781;-64
2023/11/17 01:13:17;;;;;;;7.75;6.18;;;;;;;5.16;71.61;93436.28;515594;28;757;-64
2023/11/17 01:13:32;;;;;;;6.18;5.57;;;;;;;5.16;71.52;93439.00;513422;28;813;-64
2023/11/17 01:13:48;;;;;;;6.13;5.53;;;;;;;5.14;71.65;93436.06;513446;28;854;-64
2023/11/17 01:14:05;;;;;;;7.07;5.60;;;;;;;5.16;71.40;93430.06;513415;28;797;-64
2023/11/17 01:14:20;;;;;;;6.43;5.38;;;;;;;5.15;71.71;93434.06;513975;28;824;-63
2023/11/17 01:14:35;;;;;;;6.30;5.70;;;;;;;5.17;71.27;93442.50;515313;28;840;-64
2023/11/17 01:14:51;;;;;;;6.65;5.57;;;;;;;5.18;71.61;93431.03;515495;28;820;-65
2023/11/17 01:15:07;;;;;;;7.00;5.70;;;;;;;5.20;71.48;93435.97;515336;28;1043;-65
2023/11/17 01:15:22;;;;;;;8.43;6.85;;;;;;;5.21;71.31;93438.22;515546;28;909;-64
2023/11/17 01:15:38;;;;;;;10.32;7.55;;;;;;;5.23;71.51;93429.50;515188;28;1061;-64
2023/11/17 01:15:53;;;;;;;11.40;8.37;;;;;;;5.23;71.63;93424.03;515350;28;754;-65
2023/11/17 01:16:09;;;;;;;11.30;8.70;;;;;;;5.23;71.62;93422.03;515211;28;797;-65
2023/11/17 01:16:24;;;;;;;12.30;8.93;;;;;;;5.24;71.49;93420.03;515662;28;762;-64
2023/11/17 01:16:39;;;;;;;13.13;9.37;;;;;;;5.25;71.50;93421.50;515438;28;790;-64
2023/11/17 01:16:55;;;;;;;14.27;9.77;;;;;;;5.25;71.51;93435.19;515592;28;1019;-65
2023/11/17 01:17:11;;;;;;;15.83;10.63;;;;;;;5.25;71.34;93424.25;515334;28;841;-64
2023/11/17 01:17:26;;;;;;;16.63;11.45;;;;;;;5.25;71.24;93424.25;515585;28;1020;-64
2023/11/17 01:17:42;;;;;;;16.85;11.50;;;;;;;5.24;71.09;93426.22;515222;28;853;-65
2023/11/17 01:17:58;;;;;;;14.60;10.85;;;;;;;5.23;71.11;93427.50;515184;28;1240;-64
2023/11/17 01:18:14;;;;;;;13.40;10.20;;;;;;;5.23;71.20;93426.75;515326;28;1034;-64